Time;durP1;ratioP1;P1;durP2;ratioP2;P2;SDS_P1;SDS_P2;PMS_P1;PMS_P2;Temp;Humidity;BMP_temperature;BMP_pressure;BME280_temperature;BME280_humidity;BME280_pressure;Samples;Min_cycle;Max_cycle;Signal;HPM_P1;HPM_P2
2021/04/04 00:00:54;;;;;;;3.20;1.00;;;2.20;76.60;;;;;;4903445;29;20277;-63
2021/04/04 00:03:22;;;;;;;4.00;1.27;;;2.20;76.80;;;;;;4906287;29;20280;-62
2021/04/04 00:05:50;;;;;;;4.03;1.10;;;2.10;77.20;;;;;;4905324;29;20100;-62
2021/04/04 00:08:18;;;;;;;2.92;1.33;;;2.10;77.30;;;;;;4906300;29;20240;-64
2021/04/04 00:10:46;;;;;;;3.40;1.40;;;2.10;76.90;;;;;;4906505;29;20351;-62
2021/04/04 00:13:14;;;;;;;4.55;1.13;;;2.00;77.00;;;;;;4905780;29;20051;-62
2021/04/04 00:15:42;;;;;;;5.78;1.83;;;2.00;77.60;;;;;;4905697;29;20063;-63
2021/04/04 00:18:09;;;;;;;8.40;1.48;;;2.00;77.70;;;;;;4905472;29;20060;-62
2021/04/04 00:20:37;;;;;;;4.82;1.50;;;2.00;78.00;;;;;;4906279;29;20256;-63
2021/04/04 00:23:05;;;;;;;6.28;1.52;;;1.90;77.80;;;;;;4888767;29;20219;-62
2021/04/04 00:25:33;;;;;;;6.45;1.60;;;1.80;77.80;;;;;;4905948;29;20248;-63
2021/04/04 00:28:04;;;;;;;3.13;1.65;;;1.80;78.20;;;;;;4906047;29;20056;-62
2021/04/04 00:30:31;;;;;;;8.00;1.67;;;1.70;78.50;;;;;;4905705;29;20112;-64
2021/04/04 00:33:01;;;;;;;4.10;1.60;;;1.70;78.70;;;;;;4905186;29;20273;-63
2021/04/04 00:35:31;;;;;;;5.45;2.20;;;1.70;78.60;;;;;;4905837;29;20059;-63
2021/04/04 00:37:59;;;;;;;3.53;1.92;;;1.70;79.20;;;;;;4903839;29;20084;-63
2021/04/04 00:40:29;;;;;;;7.78;2.10;;;1.60;79.20;;;;;;4904995;29;20420;-63
2021/04/04 00:42:58;;;;;;;3.58;1.55;;;1.60;79.00;;;;;;4904109;29;20048;-64
2021/04/04 00:45:28;;;;;;;7.70;1.75;;;1.60;79.10;;;;;;4904696;29;20516;-62
2021/04/04 00:47:56;;;;;;;9.18;2.72;;;1.60;79.10;;;;;;4904710;29;20063;-63
2021/04/04 00:50:25;;;;;;;10.35;2.50;;;1.60;79.10;;;;;;4903823;29;20529;-63
2021/04/04 00:52:53;;;;;;;3.65;1.25;;;1.60;79.10;;;;;;4905983;29;20138;-62
2021/04/04 00:55:24;;;;;;;5.38;1.85;;;1.50;79.30;;;;;;4920682;29;20421;-62
2021/04/04 00:57:53;;;;;;;5.97;1.95;;;1.50;79.50;;;;;;4906473;29;20067;-63
2021/04/04 01:00:24;;;;;;;5.32;1.58;;;1.50;79.90;;;;;;4902381;29;20358;-62
2021/04/04 01:02:55;;;;;;;8.93;1.63;;;1.50;79.00;;;;;;4906717;29;20071;-64
2021/04/04 01:05:30;;;;;;;5.18;1.05;;;1.60;79.10;;;;;;4905873;29;20097;-62
2021/04/04 01:07:58;;;;;;;3.78;2.17;;;1.50;79.10;;;;;;4907455;29;20056;-62
2021/04/04 01:10:29;;;;;;;9.20;1.67;;;1.50;79.40;;;;;;4905897;29;21061;-63
2021/04/04 01:13:06;;;;;;;9.27;1.90;;;1.70;78.80;;;;;;4907548;29;20412;-63
2021/04/04 01:15:36;;;;;;;4.28;1.98;;;1.70;79.10;;;;;;4905156;29;20609;-63
2021/04/04 01:18:08;;;;;;;;;;;1.70;79.20;;;;;;4907238;29;20060;-61
2021/04/04 01:20:51;;;;;;;3.45;1.65;;;1.60;79.40;;;;;;2355969;29;10022778;-63
2021/04/04 01:23:55;;;;;;;2.08;0.98;;;1.60;79.50;;;;;;3552306;29;10001174;-64
2021/04/04 01:26:36;;;;;;;5.88;1.60;;;1.60;79.60;;;;;;4906043;29;20451;-63
2021/04/04 01:29:06;;;;;;;3.13;2.08;;;1.60;79.50;;;;;;4906478;29;20333;-63
2021/04/04 01:31:37;;;;;;;5.13;1.95;;;1.60;79.30;;;;;;4906480;29;20261;-62
2021/04/04 01:34:06;;;;;;;6.80;2.30;;;1.50;79.30;;;;;;4906037;29;20052;-64
2021/04/04 01:36:39;;;;;;;9.93;2.00;;;1.40;80.00;;;;;;4906338;29;20213;-63
2021/04/04 01:39:12;;;;;;;5.80;1.77;;;1.30;80.40;;;;;;4905798;29;20256;-62
2021/04/04 01:41:43;;;;;;;4.57;1.65;;;1.30;80.90;;;;;;4906927;29;20057;-62
2021/04/04 01:44:15;;;;;;;3.78;1.60;;;1.30;81.00;;;;;;4905682;29;20084;-63
2021/04/04 01:46:45;;;;;;;5.82;1.55;;;1.20;80.90;;;;;;4905842;29;20048;-63
2021/04/04 01:49:16;;;;;;;7.57;1.88;;;1.20;81.00;;;;;;4905714;29;20288;-62
2021/04/04 01:51:45;;;;;;;4.25;1.92;;;1.10;81.10;;;;;;4906527;29;20323;-63
2021/04/04 01:54:16;;;;;;;2.40;1.00;;;1.10;81.30;;;;;;4905056;29;20052;-63
2021/04/04 01:56:45;;;;;;;2.72;1.20;;;1.10;81.10;;;;;;4904437;29;20064;-63
2021/04/04 01:59:15;;;;;;;2.35;1.17;;;1.00;81.00;;;;;;4904716;29;20056;-63
2021/04/04 02:01:46;;;;;;;2.85;2.00;;;1.00;81.50;;;;;;4902277;29;20116;-62
2021/04/04 02:04:15;;;;;;;4.35;1.77;;;1.00;81.50;;;;;;4908222;29;20060;-62
2021/04/04 02:06:46;;;;;;;2.85;1.20;;;1.00;81.40;;;;;;4908229;29;20053;-63
2021/04/04 02:09:17;;;;;;;6.40;1.95;;;0.90;81.50;;;;;;4908390;29;20324;-63
2021/04/04 02:11:45;;;;;;;3.07;1.43;;;0.90;81.50;;;;;;4909009;29;20108;-63
2021/04/04 02:14:17;;;;;;;3.47;1.23;;;0.90;81.40;;;;;;4907540;29;20052;-63
2021/04/04 02:16:47;;;;;;;2.15;0.90;;;0.80;81.70;;;;;;4908204;29;20094;-63
2021/04/04 02:19:19;;;;;;;5.60;1.20;;;0.90;81.60;;;;;;4907064;29;20044;-62
2021/04/04 02:21:51;;;;;;;6.43;2.00;;;0.90;81.40;;;;;;4908656;29;20078;-63
2021/04/04 02:24:22;;;;;;;2.33;1.13;;;1.00;81.20;;;;;;4907556;29;20056;-62
2021/04/04 02:26:51;;;;;;;5.78;1.85;;;1.00;81.00;;;;;;4908527;29;20049;-63
2021/04/04 02:29:24;;;;;;;3.53;1.30;;;1.00;81.40;;;;;;4905802;29;20537;-63
2021/04/04 02:31:55;;;;;;;6.15;2.13;;;1.00;81.50;;;;;;4922547;29;20120;-63
2021/04/04 02:34:28;;;;;;;2.47;1.08;;;1.00;81.50;;;;;;4907430;29;21019;-63
2021/04/04 02:36:56;;;;;;;4.15;1.92;;;1.10;81.40;;;;;;4907084;29;20067;-63
2021/04/04 02:39:28;;;;;;;2.83;1.50;;;1.00;81.50;;;;;;4906906;29;20200;-64
2021/04/04 02:41:57;;;;;;;2.70;1.20;;;1.00;81.70;;;;;;4907497;29;20269;-63
2021/04/04 02:44:29;;;;;;;6.18;1.92;;;0.90;81.40;;;;;;4906663;29;20409;-63
2021/04/04 02:47:03;;;;;;;3.70;2.25;;;0.80;81.90;;;;;;4909080;29;20068;-63
2021/04/04 02:49:34;;;;;;;8.82;2.15;;;0.60;82.40;;;;;;4890057;29;20270;-63
2021/04/04 02:52:07;;;;;;;4.70;1.50;;;0.60;83.10;;;;;;4906575;29;20120;-62
2021/04/04 02:54:42;;;;;;;4.03;1.75;;;0.50;83.40;;;;;;4921517;29;20220;-63
2021/04/04 02:57:12;;;;;;;5.13;1.75;;;0.70;83.10;;;;;;4908560;29;20135;-63
2021/04/04 02:59:44;;;;;;;7.93;2.00;;;0.70;82.80;;;;;;4922486;29;20072;-63
2021/04/04 03:02:15;;;;;;;5.38;1.77;;;0.80;82.70;;;;;;4905336;29;20064;-63
2021/04/04 03:04:44;;;;;;;5.68;2.03;;;0.70;82.50;;;;;;4908928;29;20063;-64
2021/04/04 03:07:15;;;;;;;8.45;2.22;;;0.70;82.80;;;;;;4908181;29;20087;-63
2021/04/04 03:09:52;;;;;;;8.13;2.42;;;0.60;82.60;;;;;;4908359;29;20255;-63
2021/04/04 03:12:23;;;;;;;4.32;1.83;;;0.60;83.00;;;;;;4907875;29;20045;-63
2021/04/04 03:14:58;;;;;;;5.53;1.25;;;0.50;83.00;;;;;;4909056;29;20097;-63
2021/04/04 03:17:29;;;;;;;2.90;1.40;;;0.50;83.00;;;;;;4908035;29;20392;-64
2021/04/04 03:19:59;;;;;;;5.20;1.88;;;0.50;83.10;;;;;;4908394;29;20100;-65
2021/04/04 03:22:28;;;;;;;4.53;1.13;;;0.50;83.30;;;;;;4907803;29;20893;-64
2021/04/04 03:25:06;;;;;;;4.78;1.20;;;0.50;83.40;;;;;;4905995;29;20408;-62
2021/04/04 03:27:36;;;;;;;4.55;1.45;;;0.60;82.90;;;;;;4908082;29;20489;-63
2021/04/04 03:30:08;;;;;;;4.47;2.28;;;0.70;82.30;;;;;;4908565;29;20172;-62
2021/04/04 03:32:36;;;;;;;6.00;2.08;;;0.70;82.20;;;;;;4908522;29;20060;-63
2021/04/04 03:35:05;;;;;;;3.30;1.75;;;0.60;82.40;;;;;;4907898;29;20340;-63
2021/04/04 03:37:33;;;;;;;2.55;1.20;;;0.70;82.40;;;;;;4908985;29;20058;-62
2021/04/04 03:40:01;;;;;;;8.88;1.45;;;0.70;82.30;;;;;;4908836;29;20053;-64
2021/04/04 03:42:29;;;;;;;9.63;3.92;;;0.70;82.10;;;;;;4907036;29;20478;-63
2021/04/04 03:45:00;;;;;;;9.48;1.67;;;0.70;82.10;;;;;;4908458;29;20063;-62
2021/04/04 03:47:34;;;;;;;3.85;2.20;;;0.60;82.00;;;;;;4906363;29;20994;-62
2021/04/04 03:50:04;;;;;;;7.50;2.53;;;0.50;82.50;;;;;;4906710;29;20100;-63
2021/04/04 03:52:34;;;;;;;3.50;2.35;;;0.40;83.00;;;;;;4904381;29;20166;-62
2021/04/04 03:55:02;;;;;;;7.07;1.92;;;0.40;83.20;;;;;;4904621;29;20400;-63
2021/04/04 03:57:29;;;;;;;3.40;1.73;;;0.40;83.10;;;;;;4905883;29;20048;-63
2021/04/04 03:59:58;;;;;;;5.47;1.17;;;0.30;83.20;;;;;;4905924;29;20048;-63
2021/04/04 04:02:26;;;;;;;6.70;1.65;;;0.30;83.10;;;;;;4900348;29;20740;-63
2021/04/04 04:04:58;;;;;;;3.75;1.35;;;0.30;82.60;;;;;;4905470;29;20369;-63
2021/04/04 04:07:26;;;;;;;5.15;1.10;;;0.20;83.10;;;;;;4904297;29;20749;-63
2021/04/04 04:09:55;;;;;;;5.18;1.90;;;0.20;83.00;;;;;;4905428;29;20380;-63
2021/04/04 04:12:23;;;;;;;4.78;1.23;;;0.20;83.40;;;;;;4904817;29;20108;-62
2021/04/04 04:14:52;;;;;;;1.67;0.93;;;0.20;83.60;;;;;;4903978;29;20061;-63
2021/04/04 04:17:19;;;;;;;5.32;1.13;;;0.20;83.60;;;;;;4904631;29;20115;-63
2021/04/04 04:19:46;;;;;;;3.97;1.33;;;0.20;83.40;;;;;;4905515;29;20061;-63
2021/04/04 04:22:15;;;;;;;3.40;0.93;;;0.20;83.20;;;;;;4905493;29;20107;-65
2021/04/04 04:24:46;;;;;;;2.65;0.98;;;0.30;83.10;;;;;;4910648;29;20052;-64
2021/04/04 04:27:18;;;;;;;7.07;4.03;;;0.20;83.30;;;;;;4904116;29;20096;-63
2021/04/04 04:29:49;;;;;;;3.55;1.55;;;0.20;83.60;;;;;;4897559;29;20115;-62
2021/04/04 04:32:21;;;;;;;2.70;1.20;;;0.20;83.50;;;;;;4904136;29;20336;-63
2021/04/04 04:34:50;;;;;;;7.20;1.20;;;0.10;83.50;;;;;;4903697;29;20059;-62
2021/04/04 04:37:19;;;;;;;4.68;2.58;;;0.20;83.40;;;;;;4905724;29;20048;-63
2021/04/04 04:39:49;;;;;;;4.13;1.67;;;0.10;83.50;;;;;;4920464;29;20374;-63
2021/04/04 04:42:18;;;;;;;3.78;1.73;;;0.10;84.00;;;;;;4906964;29;20071;-62
2021/04/04 04:44:48;;;;;;;7.53;1.75;;;0.10;84.40;;;;;;4907018;29;20064;-63
2021/04/04 04:47:16;;;;;;;2.88;0.95;;;0.00;84.40;;;;;;4906370;29;20044;-63
2021/04/04 04:49:44;;;;;;;8.98;1.63;;;0.10;84.50;;;;;;4907108;29;20121;-62
2021/04/04 04:52:12;;;;;;;4.00;1.50;;;0.10;84.40;;;;;;4906438;29;20100;-63
2021/04/04 04:54:43;;;;;;;4.18;1.52;;;0.10;84.30;;;;;;4906951;29;20071;-63
2021/04/04 04:57:13;;;;;;;7.78;2.28;;;0.10;84.10;;;;;;4906257;29;20048;-63
2021/04/04 04:59:41;;;;;;;3.90;2.00;;;0.00;84.10;;;;;;4907255;29;20057;-63
2021/04/04 05:02:11;;;;;;;4.38;1.83;;;0.00;84.00;;;;;;4902749;29;20049;-63
2021/04/04 05:04:39;;;;;;;3.88;1.75;;;0.00;84.00;;;;;;4906584;29;20088;-62
2021/04/04 05:07:07;;;;;;;4.90;2.50;;;0.10;84.10;;;;;;4906117;29;20463;-62
2021/04/04 05:09:36;;;;;;;4.18;2.00;;;0.30;84.00;;;;;;4906667;29;20073;-62
2021/04/04 05:12:05;;;;;;;5.32;2.92;;;0.50;83.70;;;;;;4904647;29;20344;-63
2021/04/04 05:14:34;;;;;;;5.05;2.10;;;0.70;83.00;;;;;;4906629;29;20064;-63
2021/04/04 05:17:02;;;;;;;5.70;3.15;;;1.00;82.00;;;;;;4920555;29;20119;-63
2021/04/04 05:19:34;;;;;;;6.22;1.95;;;1.10;81.50;;;;;;4906723;29;20049;-63
2021/04/04 05:22:02;;;;;;;7.97;3.15;;;1.20;81.10;;;;;;4906626;29;20065;-63
2021/04/04 05:24:31;;;;;;;6.47;2.42;;;1.40;80.50;;;;;;4907106;29;20115;-63
2021/04/04 05:26:59;;;;;;;4.88;2.63;;;1.50;80.20;;;;;;4906002;29;20108;-62
2021/04/04 05:29:29;;;;;;;9.45;2.22;;;1.50;80.10;;;;;;4907305;29;20339;-63
2021/04/04 05:31:57;;;;;;;5.93;2.58;;;1.60;80.40;;;;;;4907086;29;20056;-62
2021/04/04 05:34:27;;;;;;;3.75;2.00;;;1.70;79.70;;;;;;4906020;29;20047;-63
2021/04/04 05:36:57;;;;;;;5.72;2.28;;;1.70;79.80;;;;;;4909660;29;20055;-62
2021/04/04 05:39:26;;;;;;;4.35;1.63;;;1.80;79.60;;;;;;4910182;29;20279;-63
2021/04/04 05:41:55;;;;;;;4.65;1.50;;;1.80;78.90;;;;;;4910795;29;20340;-63
2021/04/04 05:44:33;;;;;;;6.10;2.25;;;1.60;78.90;;;;;;4907708;29;20064;-62
2021/04/04 05:47:06;;;;;;;3.25;1.27;;;1.60;79.50;;;;;;4908883;29;20056;-62
2021/04/04 05:49:44;;;;;;;9.88;1.77;;;1.60;79.40;;;;;;4909378;29;20056;-62
2021/04/04 05:52:22;;;;;;;9.18;2.47;;;1.60;79.60;;;;;;4909592;29;20107;-62
2021/04/04 05:55:10;;;;;;;4.45;1.27;;;1.70;79.40;;;;;;4908374;29;20080;-63
2021/04/04 05:57:45;;;;;;;5.78;1.85;;;1.80;79.30;;;;;;4908145;29;20398;-62
2021/04/04 06:00:17;;;;;;;4.47;2.50;;;2.00;78.60;;;;;;4903636;29;20232;-64
2021/04/04 06:03:08;;;;;;;5.55;2.30;;;2.10;78.70;;;;;;4908872;29;20056;-63
2021/04/04 06:06:03;;;;;;;7.35;2.75;;;2.30;77.80;;;;;;4907067;29;20972;-63
2021/04/04 06:09:02;;;;;;;6.15;2.47;;;2.50;77.50;;;;;;4908692;29;20373;-63
2021/04/04 06:11:40;;;;;;;8.45;2.58;;;2.40;77.40;;;;;;4896160;29;20408;-62
2021/04/04 06:14:16;;;;;;;6.88;2.20;;;2.40;77.50;;;;;;4909739;29;20378;-62
2021/04/04 06:16:54;;;;;;;10.05;2.95;;;2.40;77.60;;;;;;4908401;29;20088;-62
2021/04/04 06:19:36;;;;;;;13.70;2.08;;;2.30;77.70;;;;;;4908272;29;20100;-62
2021/04/04 06:22:12;;;;;;;8.88;2.65;;;2.30;78.00;;;;;;4908648;29;20048;-61
2021/04/04 06:24:47;;;;;;;5.40;1.98;;;2.50;78.00;;;;;;4908233;29;20077;-63
2021/04/04 06:27:24;;;;;;;3.25;1.70;;;2.50;77.60;;;;;;4908579;29;20044;-62
2021/04/04 06:30:20;;;;;;;5.05;2.20;;;2.80;76.60;;;;;;4907955;29;20056;-62
2021/04/04 06:33:02;;;;;;;7.00;2.70;;;2.70;77.00;;;;;;4908919;29;21238;-63
2021/04/04 06:35:38;;;;;;;10.85;2.75;;;2.90;76.40;;;;;;4909130;29;20315;-62
2021/04/04 06:38:44;;;;;;;10.35;2.13;;;3.00;76.10;;;;;;4909779;29;20374;-61
2021/04/04 06:41:27;;;;;;;8.38;2.40;;;2.90;75.90;;;;;;4890783;29;20362;-62
2021/04/04 06:44:04;;;;;;;3.80;1.90;;;3.10;75.40;;;;;;4911483;29;20045;-63
2021/04/04 06:46:45;;;;;;;6.20;2.50;;;3.10;75.70;;;;;;4910021;29;20152;-62
2021/04/04 06:49:27;;;;;;;4.65;2.45;;;3.40;75.20;;;;;;4910388;29;20057;-63
2021/04/04 06:52:02;;;;;;;5.63;2.00;;;3.50;74.00;;;;;;4910168;29;20104;-62
2021/04/04 06:54:41;;;;;;;12.57;4.15;;;3.60;74.90;;;;;;4911361;29;20723;-63
2021/04/04 06:57:27;;;;;;;8.93;3.33;;;3.80;74.10;;;;;;4910743;29;20060;-63
2021/04/04 07:00:08;;;;;;;5.32;2.30;;;3.90;73.30;;;;;;4912229;29;20071;-62
2021/04/04 07:02:47;;;;;;;3.85;1.80;;;4.20;73.10;;;;;;4924869;29;20473;-62
2021/04/04 07:05:18;;;;;;;6.45;2.90;;;4.20;72.90;;;;;;4909859;29;20165;-62
2021/04/04 07:08:25;;;;;;;8.48;2.28;;;4.30;72.30;;;;;;4910791;29;20120;-61
2021/04/04 07:11:04;;;;;;;4.93;2.22;;;4.30;72.10;;;;;;4910200;29;20893;-62
2021/04/04 07:13:38;;;;;;;9.40;2.42;;;4.40;71.70;;;;;;4908204;29;20868;-62
2021/04/04 07:16:28;;;;;;;6.32;2.47;;;4.40;71.70;;;;;;4911303;29;20068;-62
2021/04/04 07:19:15;;;;;;;5.72;2.75;;;4.60;71.30;;;;;;4910475;29;20067;-62
2021/04/04 07:21:58;;;;;;;8.13;3.78;;;4.70;71.20;;;;;;4909609;29;20724;-62
2021/04/04 07:24:36;;;;;;;11.70;3.80;;;4.80;70.80;;;;;;4910586;29;20068;-63
2021/04/04 07:27:11;;;;;;;10.30;3.72;;;4.90;70.50;;;;;;4909071;29;20049;-62
2021/04/04 07:30:04;;;;;;;9.43;3.47;;;5.00;69.50;;;;;;4911064;29;20056;-62
2021/04/04 07:32:42;;;;;;;13.68;3.30;;;5.00;70.10;;;;;;4908500;29;20320;-62
2021/04/04 07:35:13;;;;;;;8.60;3.22;;;5.10;70.50;;;;;;4908146;29;20059;-62
2021/04/04 07:37:45;;;;;;;;;;;5.40;68.80;;;;;;4911035;29;20112;-62
2021/04/04 07:40:18;;;;;;;6.22;2.88;;;5.40;68.90;;;;;;4909122;29;19928;-63
2021/04/04 07:42:59;;;;;;;10.32;3.60;;;5.30;68.40;;;;;;4910346;29;20052;-62
2021/04/04 07:45:31;;;;;;;8.75;2.83;;;5.50;68.20;;;;;;4908982;29;20379;-62
2021/04/04 07:48:12;;;;;;;10.07;3.63;;;5.40;67.90;;;;;;4909871;29;20092;-62
2021/04/04 07:50:51;;;;;;;9.60;2.80;;;5.60;68.10;;;;;;4909568;29;20067;-63
2021/04/04 07:53:28;;;;;;;6.57;2.67;;;5.90;66.80;;;;;;4909244;29;20343;-63
2021/04/04 07:56:01;;;;;;;6.00;3.03;;;6.10;66.60;;;;;;4909357;29;20435;-62
2021/04/04 07:58:36;;;;;;;7.15;3.17;;;6.30;65.80;;;;;;4907721;29;20190;-62
2021/04/04 08:01:11;;;;;;;5.68;3.60;;;6.00;65.40;;;;;;4905018;29;20235;-62
2021/04/04 08:03:46;;;;;;;7.65;3.08;;;5.70;67.40;;;;;;4908487;29;20060;-62
2021/04/04 08:06:16;;;;;;;8.63;3.15;;;5.60;67.90;;;;;;4906904;29;20058;-62
2021/04/04 08:09:05;;;;;;;13.87;4.07;;;5.70;67.90;;;;;;4909507;29;20068;-62
2021/04/04 08:11:47;;;;;;;12.43;3.67;;;5.80;68.40;;;;;;4907899;29;20603;-62
2021/04/04 08:14:20;;;;;;;12.35;3.78;;;6.00;67.10;;;;;;4922145;29;20064;-62
2021/04/04 08:16:52;;;;;;;8.30;3.17;;;6.00;68.30;;;;;;4909190;29;20089;-62
2021/04/04 08:19:20;;;;;;;9.38;3.70;;;6.20;67.90;;;;;;4908126;29;20361;-62
2021/04/04 08:21:54;;;;;;;7.72;3.85;;;6.20;68.00;;;;;;4905979;29;20048;-62
2021/04/04 08:24:32;;;;;;;7.68;3.35;;;6.40;67.70;;;;;;4908329;29;20175;-62
2021/04/04 08:27:06;;;;;;;12.00;3.20;;;6.60;67.60;;;;;;4908044;29;20075;-62
2021/04/04 08:29:40;;;;;;;7.03;3.58;;;6.80;66.60;;;;;;4907929;29;20386;-62
2021/04/04 08:32:13;;;;;;;9.00;3.80;;;7.00;66.40;;;;;;4907615;29;20056;-62
2021/04/04 08:34:45;;;;;;;7.07;3.05;;;7.10;66.50;;;;;;4908324;29;20229;-62
2021/04/04 08:37:24;;;;;;;7.05;4.10;;;7.20;66.50;;;;;;4916203;29;20351;-62
2021/04/04 08:39:56;;;;;;;11.00;4.18;;;7.30;66.20;;;;;;4908196;29;20355;-62
2021/04/04 08:42:25;;;;;;;12.65;3.28;;;7.60;66.50;;;;;;4905656;29;20502;-62
2021/04/04 08:45:02;;;;;;;12.10;3.85;;;7.70;66.20;;;;;;4909467;29;20080;-63
2021/04/04 08:47:32;;;;;;;11.27;3.42;;;7.90;65.50;;;;;;4906718;29;21096;-62
2021/04/04 08:50:05;;;;;;;7.15;3.38;;;8.30;64.50;;;;;;4906376;29;20053;-62
2021/04/04 08:52:35;;;;;;;9.27;3.97;;;8.60;62.80;;;;;;4908839;29;20048;-62
2021/04/04 08:55:11;;;;;;;11.63;4.43;;;8.90;62.50;;;;;;4908880;29;20049;-62
2021/04/04 08:57:44;;;;;;;8.38;3.17;;;9.20;60.20;;;;;;4908329;29;20060;-62
2021/04/04 09:00:15;;;;;;;13.93;4.13;;;9.40;60.30;;;;;;4904147;29;20059;-62
2021/04/04 09:02:51;;;;;;;12.18;3.97;;;9.50;59.80;;;;;;4907615;29;20100;-63
2021/04/04 09:05:21;;;;;;;15.40;5.60;;;9.80;59.10;;;;;;4907045;29;20072;-63
2021/04/04 09:07:50;;;;;;;10.93;3.83;;;10.10;56.70;;;;;;4923510;29;20064;-62
2021/04/04 09:10:20;;;;;;;13.02;3.63;;;10.20;56.50;;;;;;4907175;29;20075;-62
2021/04/04 09:12:51;;;;;;;12.23;4.80;;;10.80;55.00;;;;;;4905484;29;20119;-63
2021/04/04 09:15:22;;;;;;;11.48;4.55;;;11.30;53.50;;;;;;4907641;29;20052;-62
2021/04/04 09:17:52;;;;;;;14.55;3.60;;;11.40;52.70;;;;;;4907511;29;20124;-65
2021/04/04 09:20:31;;;;;;;10.02;3.13;;;11.40;52.10;;;;;;4907027;29;20304;-62
2021/04/04 09:23:01;;;;;;;14.23;3.67;;;11.40;51.90;;;;;;4907597;29;20120;-62
2021/04/04 09:25:33;;;;;;;14.55;3.72;;;11.70;50.10;;;;;;4905371;29;20140;-63
2021/04/04 09:28:05;;;;;;;8.13;3.22;;;11.90;48.30;;;;;;4906796;29;20048;-63
2021/04/04 09:30:39;;;;;;;23.40;3.90;;;12.10;47.80;;;;;;4906935;29;20048;-62
2021/04/04 09:33:10;;;;;;;11.05;3.22;;;12.20;47.30;;;;;;4920222;29;20105;-63
2021/04/04 09:35:40;;;;;;;8.20;3.10;;;11.80;48.10;;;;;;4906043;29;20063;-61
2021/04/04 09:38:11;;;;;;;11.73;3.03;;;11.50;47.60;;;;;;4905737;29;20083;-63
2021/04/04 09:40:42;;;;;;;11.95;3.75;;;11.50;48.10;;;;;;4906240;29;20105;-63
2021/04/04 09:43:10;;;;;;;;;;;11.20;48.20;;;;;;4906295;29;20055;-62
2021/04/04 09:45:39;;;;;;;13.05;3.78;;;11.20;47.40;;;;;;4907619;29;20095;-62
2021/04/04 09:48:25;;;;;;;12.43;3.85;;;12.30;45.60;;;;;;4906501;29;20075;-62
2021/04/04 09:51:08;;;;;;;11.57;3.30;;;13.40;42.60;;;;;;4906021;29;20052;-62
2021/04/04 09:53:37;;;;;;;8.65;3.75;;;13.40;42.20;;;;;;4906064;29;20415;-63
2021/04/04 09:56:14;;;;;;;12.38;3.72;;;12.80;42.80;;;;;;4905933;29;20363;-62
2021/04/04 09:58:44;;;;;;;8.70;3.72;;;12.70;43.60;;;;;;4906331;29;20048;-62
2021/04/04 10:01:18;;;;;;;13.83;3.40;;;12.50;44.50;;;;;;4903348;29;20048;-63
2021/04/04 10:04:00;;;;;;;7.65;3.10;;;13.20;43.50;;;;;;4905083;29;20371;-62
2021/04/04 10:06:33;;;;;;;11.43;3.60;;;13.60;42.00;;;;;;4903645;29;20265;-62
2021/04/04 10:09:04;;;;;;;15.27;3.63;;;13.90;40.60;;;;;;4905322;29;20069;-63
2021/04/04 10:11:34;;;;;;;10.75;3.33;;;14.20;40.70;;;;;;4905826;29;20072;-61
2021/04/04 10:14:08;;;;;;;12.43;3.55;;;14.90;39.90;;;;;;4905519;29;20076;-62
2021/04/04 10:16:37;;;;;;;15.55;4.70;;;14.70;39.00;;;;;;4908333;29;20079;-62
2021/04/04 10:19:06;;;;;;;10.20;3.67;;;14.60;39.30;;;;;;4907598;29;20345;-62
2021/04/04 10:21:36;;;;;;;11.13;3.38;;;14.70;38.60;;;;;;4907141;29;20092;-62
2021/04/04 10:24:26;;;;;;;52.78;21.80;;;14.20;39.60;;;;;;4909939;29;20343;-62
2021/04/04 10:27:18;;;;;;;17.05;5.97;;;14.10;40.50;;;;;;4911511;29;20142;-63
2021/04/04 10:29:47;;;;;;;11.43;3.35;;;13.70;41.30;;;;;;4911359;29;20602;-62
2021/04/04 10:32:15;;;;;;;7.47;3.38;;;13.60;41.40;;;;;;4911380;29;20284;-62
2021/04/04 10:34:45;;;;;;;11.13;3.45;;;14.40;39.80;;;;;;4909894;29;20402;-61
2021/04/04 10:37:13;;;;;;;9.63;3.80;;;14.90;39.00;;;;;;4910586;29;20129;-61
2021/04/04 10:39:40;;;;;;;10.02;3.92;;;16.30;36.60;;;;;;4910433;29;20059;-62
2021/04/04 10:42:14;;;;;;;10.32;3.55;;;16.30;36.30;;;;;;4911136;29;20044;-62
2021/04/04 10:44:44;;;;;;;12.93;3.65;;;15.30;38.00;;;;;;4910435;29;20056;-62
2021/04/04 10:47:22;;;;;;;11.13;3.53;;;14.80;39.60;;;;;;4908273;29;20056;-63
2021/04/04 10:49:49;;;;;;;9.50;4.10;;;15.10;38.60;;;;;;4910098;29;20332;-63
2021/04/04 10:52:18;;;;;;;9.90;4.10;;;14.20;40.50;;;;;;4910314;29;20052;-63
2021/04/04 10:54:47;;;;;;;14.23;4.25;;;14.10;40.60;;;;;;4910085;29;20120;-62
2021/04/04 10:57:15;;;;;;;8.57;3.38;;;14.30;40.00;;;;;;4907265;29;20082;-62
2021/04/04 10:59:45;;;;;;;13.65;4.03;;;14.20;40.90;;;;;;4909030;29;20063;-62
2021/04/04 11:02:14;;;;;;;7.90;3.25;;;14.40;40.10;;;;;;4906099;29;20051;-63
2021/04/04 11:04:42;;;;;;;10.57;3.85;;;14.20;40.30;;;;;;4908780;29;20352;-63
2021/04/04 11:07:13;;;;;;;8.05;2.90;;;14.10;41.20;;;;;;4908967;29;20063;-62
2021/04/04 11:09:41;;;;;;;11.05;4.00;;;14.20;41.80;;;;;;4909111;29;20088;-63
2021/04/04 11:12:10;;;;;;;9.68;3.95;;;14.30;40.60;;;;;;4908448;29;20359;-62
2021/04/04 11:14:38;;;;;;;11.35;3.83;;;15.60;38.60;;;;;;4909228;29;20048;-62
2021/04/04 11:17:08;;;;;;;11.95;4.05;;;16.20;36.60;;;;;;4907415;29;20469;-61
2021/04/04 11:19:36;;;;;;;7.18;3.47;;;18.60;33.40;;;;;;4915896;29;20105;-61
2021/04/04 11:22:06;;;;;;;10.88;4.15;;;19.50;31.60;;;;;;4898143;29;20052;-63
2021/04/04 11:24:35;;;;;;;10.10;3.58;;;18.90;31.10;;;;;;4907922;29;20055;-63
2021/04/04 11:27:05;;;;;;;12.98;4.03;;;18.20;32.30;;;;;;4906208;29;20060;-62
2021/04/04 11:29:45;;;;;;;12.98;3.88;;;17.40;33.60;;;;;;4908010;29;20045;-63
2021/04/04 11:32:19;;;;;;;10.93;3.53;;;16.60;34.10;;;;;;4907646;29;20040;-62
2021/04/04 11:34:59;;;;;;;11.88;4.05;;;17.30;32.60;;;;;;4907459;29;20077;-63
2021/04/04 11:37:37;;;;;;;11.05;4.30;;;18.60;31.00;;;;;;4907053;29;20412;-63
2021/04/04 11:40:32;;;;;;;15.48;3.58;;;19.00;28.70;;;;;;4905650;29;20467;-64
2021/04/04 11:43:26;;;;;;;11.88;4.10;;;18.50;29.60;;;;;;4905740;29;20068;-62
2021/04/04 11:45:54;;;;;;;8.93;3.80;;;17.70;30.50;;;;;;4906711;29;20364;-63
2021/04/04 11:48:31;;;;;;;12.55;3.85;;;16.40;31.60;;;;;;4906277;29;20055;-63
2021/04/04 11:51:31;;;;;;;12.55;4.10;;;17.60;30.90;;;;;;4906523;29;20350;-63
2021/04/04 11:53:59;;;;;;;12.45;3.97;;;19.20;28.90;;;;;;4906202;29;20036;-63
2021/04/04 11:56:46;;;;;;;9.68;3.45;;;19.60;28.90;;;;;;4907043;29;20358;-63
2021/04/04 11:59:15;;;;;;;12.05;3.60;;;20.90;27.40;;;;;;4906467;29;20123;-63
2021/04/04 12:01:46;;;;;;;10.45;4.05;;;19.00;28.70;;;;;;4903394;29;20044;-64
2021/04/04 12:04:31;;;;;;;12.30;4.20;;;17.40;31.30;;;;;;4907701;29;20060;-64
2021/04/04 12:07:06;;;;;;;12.10;4.47;;;16.40;32.80;;;;;;4907889;29;20053;-62
2021/04/04 12:09:35;;;;;;;14.07;4.72;;;16.20;34.40;;;;;;4909421;29;20044;-63
2021/04/04 12:12:06;;;;;;;11.60;4.70;;;16.30;34.50;;;;;;4908135;29;20336;-64
2021/04/04 12:14:45;;;;;;;7.82;3.53;;;16.50;33.70;;;;;;4908543;29;20083;-63
2021/04/04 12:17:12;;;;;;;10.93;4.25;;;15.90;35.00;;;;;;4907768;29;20056;-64
2021/04/04 12:19:43;;;;;;;10.93;3.70;;;15.00;36.10;;;;;;4909249;29;20087;-63
2021/04/04 12:22:12;;;;;;;10.70;5.55;;;14.60;37.10;;;;;;4908458;29;20103;-64
2021/04/04 12:24:45;;;;;;;10.32;3.95;;;14.80;37.00;;;;;;4907785;29;20063;-63
2021/04/04 12:27:19;;;;;;;12.15;4.18;;;15.10;36.30;;;;;;4908190;29;20076;-62
2021/04/04 12:29:53;;;;;;;12.93;4.43;;;15.60;35.80;;;;;;4908353;29;20060;-63
2021/04/04 12:32:21;;;;;;;15.40;4.32;;;16.50;34.50;;;;;;4907799;29;20115;-63
2021/04/04 12:34:54;;;;;;;11.45;4.05;;;17.20;32.70;;;;;;4907866;29;20123;-62
2021/04/04 12:37:26;;;;;;;11.70;4.63;;;16.40;33.90;;;;;;4922432;29;20366;-62
2021/04/04 12:39:56;;;;;;;11.30;3.63;;;15.70;35.00;;;;;;4907987;29;20352;-62
2021/04/04 12:42:26;;;;;;;9.70;3.35;;;15.80;34.80;;;;;;4908156;29;20741;-62
2021/04/04 12:44:56;;;;;;;11.50;3.80;;;16.80;33.90;;;;;;4908735;29;20100;-62
2021/04/04 12:47:26;;;;;;;8.57;3.38;;;16.80;33.50;;;;;;4906799;29;20803;-63
2021/04/04 12:49:57;;;;;;;8.10;4.20;;;16.40;33.50;;;;;;4906798;29;20049;-62
2021/04/04 12:52:37;;;;;;;8.60;3.78;;;16.10;34.70;;;;;;4906536;29;20838;-62
2021/04/04 12:55:14;;;;;;;12.13;4.00;;;18.50;30.80;;;;;;4907632;29;20072;-62
2021/04/04 12:57:43;;;;;;;11.68;3.72;;;20.40;28.40;;;;;;4907366;29;20351;-61
2021/04/04 13:00:22;;;;;;;10.68;3.63;;;22.70;25.30;;;;;;4907958;29;20059;-62
2021/04/04 13:03:00;;;;;;;10.07;3.60;;;23.70;23.70;;;;;;4904821;29;21038;-62
2021/04/04 13:05:37;;;;;;;11.65;3.83;;;23.90;23.30;;;;;;4905656;29;20074;-62
2021/04/04 13:08:16;;;;;;;12.48;4.03;;;24.70;22.20;;;;;;4905102;29;20221;-62
2021/04/04 13:10:47;;;;;;;12.93;4.80;;;25.30;21.30;;;;;;4905297;29;20052;-62
2021/04/04 13:13:18;;;;;;;10.25;3.40;;;23.40;23.20;;;;;;4905249;29;20056;-63
2021/04/04 13:15:48;;;;;;;9.88;4.03;;;21.90;24.60;;;;;;4905961;29;20068;-63
2021/04/04 13:18:23;;;;;;;9.35;3.70;;;20.40;26.60;;;;;;4904848;29;20063;-62
2021/04/04 13:20:53;;;;;;;9.27;3.50;;;19.60;28.20;;;;;;4919873;29;20115;-63